sensor_id;sensor_type;location;lat;lon;timestamp;temperature;humidity
17284;DHT22;8760;52.248;20.952;2023-12-20T00:01:00;6.30;99.90
17284;DHT22;8760;52.248;20.952;2023-12-20T00:03:27;6.30;99.90
17284;DHT22;8760;52.248;20.952;2023-12-20T00:05:54;6.30;99.90
17284;DHT22;8760;52.248;20.952;2023-12-20T00:08:21;6.30;99.90
17284;DHT22;8760;52.248;20.952;2023-12-20T00:10:48;6.30;99.90
17284;DHT22;8760;52.248;20.952;2023-12-20T00:13:16;6.30;99.90
17284;DHT22;8760;52.248;20.952;2023-12-20T00:15:43;6.30;99.90
17284;DHT22;8760;52.248;20.952;2023-12-20T00:18:10;6.30;99.90
17284;DHT22;8760;52.248;20.952;2023-12-20T00:20:36;6.30;99.90
17284;DHT22;8760;52.248;20.952;2023-12-20T00:23:03;6.30;99.90
17284;DHT22;8760;52.248;20.952;2023-12-20T00:25:30;6.30;99.90
17284;DHT22;8760;52.248;20.952;2023-12-20T00:27:57;6.30;99.90
17284;DHT22;8760;52.248;20.952;2023-12-20T00:30:25;6.30;99.90
17284;DHT22;8760;52.248;20.952;2023-12-20T00:32:52;6.30;99.90
17284;DHT22;8760;52.248;20.952;2023-12-20T00:35:19;6.30;99.90
17284;DHT22;8760;52.248;20.952;2023-12-20T00:37:46;6.30;99.90
17284;DHT22;8760;52.248;20.952;2023-12-20T00:40:12;6.30;99.90
17284;DHT22;8760;52.248;20.952;2023-12-20T00:42:39;6.30;99.90
17284;DHT22;8760;52.248;20.952;2023-12-20T00:45:07;6.30;99.90
17284;DHT22;8760;52.248;20.952;2023-12-20T00:47:35;6.30;99.90
17284;DHT22;8760;52.248;20.952;2023-12-20T00:50:02;6.30;99.90
17284;DHT22;8760;52.248;20.952;2023-12-20T00:52:29;6.40;99.90
17284;DHT22;8760;52.248;20.952;2023-12-20T00:54:55;6.40;99.90
17284;DHT22;8760;52.248;20.952;2023-12-20T00:57:22;6.40;99.90
17284;DHT22;8760;52.248;20.952;2023-12-20T00:59:49;6.40;99.90
17284;DHT22;8760;52.248;20.952;2023-12-20T01:02:16;6.40;99.90
17284;DHT22;8760;52.248;20.952;2023-12-20T01:04:44;6.40;99.90
17284;DHT22;8760;52.248;20.952;2023-12-20T01:07:11;6.40;99.90
17284;DHT22;8760;52.248;20.952;2023-12-20T01:09:38;6.40;99.90
17284;DHT22;8760;52.248;20.952;2023-12-20T01:12:05;6.40;99.90
17284;DHT22;8760;52.248;20.952;2023-12-20T01:14:32;6.40;99.90
17284;DHT22;8760;52.248;20.952;2023-12-20T01:16:59;6.50;99.90
17284;DHT22;8760;52.248;20.952;2023-12-20T01:19:26;6.50;99.90
17284;DHT22;8760;52.248;20.952;2023-12-20T01:21:55;6.50;99.90
17284;DHT22;8760;52.248;20.952;2023-12-20T01:24:22;6.50;99.90
17284;DHT22;8760;52.248;20.952;2023-12-20T01:26:48;6.50;99.90
17284;DHT22;8760;52.248;20.952;2023-12-20T01:29:15;6.50;99.90
17284;DHT22;8760;52.248;20.952;2023-12-20T01:31:42;6.50;99.90
17284;DHT22;8760;52.248;20.952;2023-12-20T01:34:09;6.50;99.90
17284;DHT22;8760;52.248;20.952;2023-12-20T01:36:36;6.40;99.90
17284;DHT22;8760;52.248;20.952;2023-12-20T01:39:04;6.40;99.90
17284;DHT22;8760;52.248;20.952;2023-12-20T01:41:31;6.40;99.90
17284;DHT22;8760;52.248;20.952;2023-12-20T01:43:57;6.40;99.90
17284;DHT22;8760;52.248;20.952;2023-12-20T01:46:25;6.40;99.90
17284;DHT22;8760;52.248;20.952;2023-12-20T01:48:52;6.50;99.90
17284;DHT22;8760;52.248;20.952;2023-12-20T01:51:20;6.50;99.90
17284;DHT22;8760;52.248;20.952;2023-12-20T01:53:47;6.50;99.90
17284;DHT22;8760;52.248;20.952;2023-12-20T01:56:16;6.40;99.90
17284;DHT22;8760;52.248;20.952;2023-12-20T01:58:44;6.50;99.90
17284;DHT22;8760;52.248;20.952;2023-12-20T02:01:12;6.50;99.90
17284;DHT22;8760;52.248;20.952;2023-12-20T02:03:40;6.50;99.90
17284;DHT22;8760;52.248;20.952;2023-12-20T02:06:07;6.50;99.90
17284;DHT22;8760;52.248;20.952;2023-12-20T02:08:34;6.40;99.90
17284;DHT22;8760;52.248;20.952;2023-12-20T02:11:01;6.50;99.90
17284;DHT22;8760;52.248;20.952;2023-12-20T02:13:30;6.50;99.90
17284;DHT22;8760;52.248;20.952;2023-12-20T02:15:57;6.50;99.90
17284;DHT22;8760;52.248;20.952;2023-12-20T02:18:24;6.50;99.90
17284;DHT22;8760;52.248;20.952;2023-12-20T02:20:51;6.50;99.90
17284;DHT22;8760;52.248;20.952;2023-12-20T02:23:19;6.50;99.90
17284;DHT22;8760;52.248;20.952;2023-12-20T02:25:46;6.50;99.90
17284;DHT22;8760;52.248;20.952;2023-12-20T02:28:13;6.40;99.90
17284;DHT22;8760;52.248;20.952;2023-12-20T02:30:40;6.50;99.90
17284;DHT22;8760;52.248;20.952;2023-12-20T02:33:08;6.50;99.90
17284;DHT22;8760;52.248;20.952;2023-12-20T02:35:37;6.50;99.90
17284;DHT22;8760;52.248;20.952;2023-12-20T02:38:04;6.50;99.90
17284;DHT22;8760;52.248;20.952;2023-12-20T02:40:32;6.50;99.90
17284;DHT22;8760;52.248;20.952;2023-12-20T02:42:58;6.50;99.90
17284;DHT22;8760;52.248;20.952;2023-12-20T02:45:26;6.50;99.90
17284;DHT22;8760;52.248;20.952;2023-12-20T02:47:53;6.50;99.90
17284;DHT22;8760;52.248;20.952;2023-12-20T02:50:20;6.40;99.90
17284;DHT22;8760;52.248;20.952;2023-12-20T02:52:46;6.40;99.90
17284;DHT22;8760;52.248;20.952;2023-12-20T02:55:13;6.50;99.90
17284;DHT22;8760;52.248;20.952;2023-12-20T02:57:41;6.40;99.90
17284;DHT22;8760;52.248;20.952;2023-12-20T03:00:09;6.40;99.90
17284;DHT22;8760;52.248;20.952;2023-12-20T03:02:36;6.40;99.90
17284;DHT22;8760;52.248;20.952;2023-12-20T03:05:03;6.50;99.90
17284;DHT22;8760;52.248;20.952;2023-12-20T03:07:31;6.40;99.90
17284;DHT22;8760;52.248;20.952;2023-12-20T03:09:58;6.50;99.90
17284;DHT22;8760;52.248;20.952;2023-12-20T03:12:24;6.50;99.90
17284;DHT22;8760;52.248;20.952;2023-12-20T03:14:53;6.50;99.90
17284;DHT22;8760;52.248;20.952;2023-12-20T03:17:19;6.40;99.90
17284;DHT22;8760;52.248;20.952;2023-12-20T03:19:46;6.40;99.90
17284;DHT22;8760;52.248;20.952;2023-12-20T03:22:13;6.40;99.90
17284;DHT22;8760;52.248;20.952;2023-12-20T03:24:41;6.40;99.90
17284;DHT22;8760;52.248;20.952;2023-12-20T03:27:08;6.40;99.90
17284;DHT22;8760;52.248;20.952;2023-12-20T03:29:34;6.40;99.90
17284;DHT22;8760;52.248;20.952;2023-12-20T03:32:03;6.40;99.90
17284;DHT22;8760;52.248;20.952;2023-12-20T03:34:30;6.40;99.90
17284;DHT22;8760;52.248;20.952;2023-12-20T03:36:57;6.50;99.90
17284;DHT22;8760;52.248;20.952;2023-12-20T03:39:24;6.50;99.90
17284;DHT22;8760;52.248;20.952;2023-12-20T03:41:50;6.50;99.90
17284;DHT22;8760;52.248;20.952;2023-12-20T03:44:17;6.40;99.90
17284;DHT22;8760;52.248;20.952;2023-12-20T03:46:44;6.50;99.90
17284;DHT22;8760;52.248;20.952;2023-12-20T03:49:13;6.50;99.90
17284;DHT22;8760;52.248;20.952;2023-12-20T03:51:39;6.40;99.90
17284;DHT22;8760;52.248;20.952;2023-12-20T03:54:07;6.40;99.90
17284;DHT22;8760;52.248;20.952;2023-12-20T03:56:34;6.40;99.90
17284;DHT22;8760;52.248;20.952;2023-12-20T03:59:01;6.40;99.90
17284;DHT22;8760;52.248;20.952;2023-12-20T04:01:27;6.40;99.90
17284;DHT22;8760;52.248;20.952;2023-12-20T04:03:54;6.40;99.90
17284;DHT22;8760;52.248;20.952;2023-12-20T04:06:22;6.50;99.90
17284;DHT22;8760;52.248;20.952;2023-12-20T04:08:49;6.50;99.90
17284;DHT22;8760;52.248;20.952;2023-12-20T04:11:16;6.60;99.90
17284;DHT22;8760;52.248;20.952;2023-12-20T04:13:43;6.60;99.90
17284;DHT22;8760;52.248;20.952;2023-12-20T04:16:10;6.60;99.90
17284;DHT22;8760;52.248;20.952;2023-12-20T04:18:36;6.60;99.90
17284;DHT22;8760;52.248;20.952;2023-12-20T04:21:04;6.50;99.90
17284;DHT22;8760;52.248;20.952;2023-12-20T04:23:32;6.50;99.90
17284;DHT22;8760;52.248;20.952;2023-12-20T04:25:59;6.50;99.90
17284;DHT22;8760;52.248;20.952;2023-12-20T04:28:25;6.50;99.90
17284;DHT22;8760;52.248;20.952;2023-12-20T04:30:55;6.50;99.90
17284;DHT22;8760;52.248;20.952;2023-12-20T04:33:22;6.50;99.90
17284;DHT22;8760;52.248;20.952;2023-12-20T04:35:49;6.50;99.90
17284;DHT22;8760;52.248;20.952;2023-12-20T04:38:16;6.50;99.90
17284;DHT22;8760;52.248;20.952;2023-12-20T04:40:45;6.50;99.90
17284;DHT22;8760;52.248;20.952;2023-12-20T04:43:12;6.50;99.90
17284;DHT22;8760;52.248;20.952;2023-12-20T04:45:38;6.50;99.90
17284;DHT22;8760;52.248;20.952;2023-12-20T04:48:06;6.50;99.90
17284;DHT22;8760;52.248;20.952;2023-12-20T04:50:33;6.40;99.90
17284;DHT22;8760;52.248;20.952;2023-12-20T04:53:00;6.50;99.90
17284;DHT22;8760;52.248;20.952;2023-12-20T04:55:27;6.50;99.90
17284;DHT22;8760;52.248;20.952;2023-12-20T04:57:55;6.50;99.90
17284;DHT22;8760;52.248;20.952;2023-12-20T05:00:23;6.50;99.90
17284;DHT22;8760;52.248;20.952;2023-12-20T05:02:49;6.40;99.90
17284;DHT22;8760;52.248;20.952;2023-12-20T05:05:16;6.40;99.90
17284;DHT22;8760;52.248;20.952;2023-12-20T05:07:43;6.40;99.90
17284;DHT22;8760;52.248;20.952;2023-12-20T05:10:10;6.40;99.90
17284;DHT22;8760;52.248;20.952;2023-12-20T05:12:37;6.40;99.90
17284;DHT22;8760;52.248;20.952;2023-12-20T05:15:07;6.40;99.90
17284;DHT22;8760;52.248;20.952;2023-12-20T05:17:34;6.40;99.90
17284;DHT22;8760;52.248;20.952;2023-12-20T05:20:00;6.40;99.90
17284;DHT22;8760;52.248;20.952;2023-12-20T05:22:27;6.50;99.90
17284;DHT22;8760;52.248;20.952;2023-12-20T05:24:54;6.40;99.90
17284;DHT22;8760;52.248;20.952;2023-12-20T05:27:21;6.50;99.90
17284;DHT22;8760;52.248;20.952;2023-12-20T05:29:48;6.50;99.90
17284;DHT22;8760;52.248;20.952;2023-12-20T05:32:17;6.50;99.90
17284;DHT22;8760;52.248;20.952;2023-12-20T05:34:43;6.40;99.90
17284;DHT22;8760;52.248;20.952;2023-12-20T05:37:10;6.40;99.90
17284;DHT22;8760;52.248;20.952;2023-12-20T05:39:37;6.40;99.90
17284;DHT22;8760;52.248;20.952;2023-12-20T05:42:04;6.50;99.90
17284;DHT22;8760;52.248;20.952;2023-12-20T05:44:31;6.50;99.90
17284;DHT22;8760;52.248;20.952;2023-12-20T05:46:58;6.50;99.90
17284;DHT22;8760;52.248;20.952;2023-12-20T05:49:26;6.50;99.90
17284;DHT22;8760;52.248;20.952;2023-12-20T05:51:53;6.50;99.90
17284;DHT22;8760;52.248;20.952;2023-12-20T05:54:20;6.50;99.90
17284;DHT22;8760;52.248;20.952;2023-12-20T05:56:47;6.40;99.90
17284;DHT22;8760;52.248;20.952;2023-12-20T05:59:14;6.40;99.90
17284;DHT22;8760;52.248;20.952;2023-12-20T06:01:41;6.40;99.90
17284;DHT22;8760;52.248;20.952;2023-12-20T06:04:07;6.50;99.90
17284;DHT22;8760;52.248;20.952;2023-12-20T06:06:40;6.50;99.90
17284;DHT22;8760;52.248;20.952;2023-12-20T06:09:07;6.50;99.90
17284;DHT22;8760;52.248;20.952;2023-12-20T06:11:34;6.50;99.90
17284;DHT22;8760;52.248;20.952;2023-12-20T06:14:00;6.40;99.90
17284;DHT22;8760;52.248;20.952;2023-12-20T06:16:27;6.50;99.90
17284;DHT22;8760;52.248;20.952;2023-12-20T06:18:53;6.40;99.90
17284;DHT22;8760;52.248;20.952;2023-12-20T06:21:20;6.50;99.90
17284;DHT22;8760;52.248;20.952;2023-12-20T06:23:48;6.50;99.90
17284;DHT22;8760;52.248;20.952;2023-12-20T06:26:15;6.50;99.90
17284;DHT22;8760;52.248;20.952;2023-12-20T06:28:42;6.50;99.90
17284;DHT22;8760;52.248;20.952;2023-12-20T06:31:09;6.50;99.90
17284;DHT22;8760;52.248;20.952;2023-12-20T06:33:36;6.40;99.90
17284;DHT22;8760;52.248;20.952;2023-12-20T06:36:03;6.40;99.90
17284;DHT22;8760;52.248;20.952;2023-12-20T06:38:30;6.40;99.90
17284;DHT22;8760;52.248;20.952;2023-12-20T06:40:58;6.40;99.90
17284;DHT22;8760;52.248;20.952;2023-12-20T06:43:25;6.40;99.90
17284;DHT22;8760;52.248;20.952;2023-12-20T06:45:52;6.40;99.90
17284;DHT22;8760;52.248;20.952;2023-12-20T06:48:19;6.40;99.90
17284;DHT22;8760;52.248;20.952;2023-12-20T06:50:46;6.40;99.90
17284;DHT22;8760;52.248;20.952;2023-12-20T06:53:13;6.40;99.90
17284;DHT22;8760;52.248;20.952;2023-12-20T06:55:39;6.40;99.90
17284;DHT22;8760;52.248;20.952;2023-12-20T06:58:08;6.40;99.90
17284;DHT22;8760;52.248;20.952;2023-12-20T07:00:35;6.40;99.90
17284;DHT22;8760;52.248;20.952;2023-12-20T07:03:01;6.30;99.90
17284;DHT22;8760;52.248;20.952;2023-12-20T07:05:29;6.40;99.90
17284;DHT22;8760;52.248;20.952;2023-12-20T07:07:56;6.40;99.90
17284;DHT22;8760;52.248;20.952;2023-12-20T07:10:22;6.40;99.90
17284;DHT22;8760;52.248;20.952;2023-12-20T07:12:49;6.40;99.90
17284;DHT22;8760;52.248;20.952;2023-12-20T07:15:18;6.40;99.90
17284;DHT22;8760;52.248;20.952;2023-12-20T07:17:45;6.40;99.90
17284;DHT22;8760;52.248;20.952;2023-12-20T07:20:12;6.40;99.90
17284;DHT22;8760;52.248;20.952;2023-12-20T07:22:39;6.40;99.90
17284;DHT22;8760;52.248;20.952;2023-12-20T07:25:06;6.50;99.90
17284;DHT22;8760;52.248;20.952;2023-12-20T07:27:33;6.40;99.90
17284;DHT22;8760;52.248;20.952;2023-12-20T07:30:00;6.40;99.90
17284;DHT22;8760;52.248;20.952;2023-12-20T07:32:28;6.40;99.90
17284;DHT22;8760;52.248;20.952;2023-12-20T07:34:55;6.40;99.90
17284;DHT22;8760;52.248;20.952;2023-12-20T07:37:22;6.40;99.90
17284;DHT22;8760;52.248;20.952;2023-12-20T07:39:49;6.40;99.90
17284;DHT22;8760;52.248;20.952;2023-12-20T07:42:16;6.40;99.90
17284;DHT22;8760;52.248;20.952;2023-12-20T07:44:42;6.40;99.90
17284;DHT22;8760;52.248;20.952;2023-12-20T07:47:09;6.40;99.90
17284;DHT22;8760;52.248;20.952;2023-12-20T07:49:39;6.40;99.90
17284;DHT22;8760;52.248;20.952;2023-12-20T07:52:06;6.50;99.90
17284;DHT22;8760;52.248;20.952;2023-12-20T07:54:33;6.40;99.90
17284;DHT22;8760;52.248;20.952;2023-12-20T07:57:00;6.40;99.90
17284;DHT22;8760;52.248;20.952;2023-12-20T07:59:27;6.40;99.90
17284;DHT22;8760;52.248;20.952;2023-12-20T08:01:54;6.30;99.90
17284;DHT22;8760;52.248;20.952;2023-12-20T08:04:21;6.40;99.90
17284;DHT22;8760;52.248;20.952;2023-12-20T08:06:50;6.40;99.90
17284;DHT22;8760;52.248;20.952;2023-12-20T08:09:17;6.40;99.90
17284;DHT22;8760;52.248;20.952;2023-12-20T08:11:45;6.40;99.90
17284;DHT22;8760;52.248;20.952;2023-12-20T08:14:12;6.40;99.90
17284;DHT22;8760;52.248;20.952;2023-12-20T08:16:39;6.40;99.90
17284;DHT22;8760;52.248;20.952;2023-12-20T08:19:06;6.40;99.90
17284;DHT22;8760;52.248;20.952;2023-12-20T08:21:33;6.40;99.90
17284;DHT22;8760;52.248;20.952;2023-12-20T08:24:01;6.50;99.90
17284;DHT22;8760;52.248;20.952;2023-12-20T08:26:28;6.50;99.90
17284;DHT22;8760;52.248;20.952;2023-12-20T08:28:55;6.40;99.90
17284;DHT22;8760;52.248;20.952;2023-12-20T08:31:22;6.40;99.90
17284;DHT22;8760;52.248;20.952;2023-12-20T08:33:49;6.40;99.90
17284;DHT22;8760;52.248;20.952;2023-12-20T08:36:16;6.40;99.90
17284;DHT22;8760;52.248;20.952;2023-12-20T08:38:44;6.40;99.90
17284;DHT22;8760;52.248;20.952;2023-12-20T08:41:12;6.40;99.90
17284;DHT22;8760;52.248;20.952;2023-12-20T08:43:39;6.40;99.90
17284;DHT22;8760;52.248;20.952;2023-12-20T08:46:06;6.40;99.90
17284;DHT22;8760;52.248;20.952;2023-12-20T08:48:35;6.50;99.90
17284;DHT22;8760;52.248;20.952;2023-12-20T08:51:03;6.40;99.90
17284;DHT22;8760;52.248;20.952;2023-12-20T08:53:30;6.40;99.90
17284;DHT22;8760;52.248;20.952;2023-12-20T08:55:56;6.40;99.90
17284;DHT22;8760;52.248;20.952;2023-12-20T08:58:28;6.40;99.90
17284;DHT22;8760;52.248;20.952;2023-12-20T09:00:54;6.50;99.90
17284;DHT22;8760;52.248;20.952;2023-12-20T09:03:22;6.40;99.90
17284;DHT22;8760;52.248;20.952;2023-12-20T09:05:49;6.50;99.90
17284;DHT22;8760;52.248;20.952;2023-12-20T09:08:15;6.40;99.90
17284;DHT22;8760;52.248;20.952;2023-12-20T09:10:42;6.40;99.90
17284;DHT22;8760;52.248;20.952;2023-12-20T09:13:10;6.40;99.90
17284;DHT22;8760;52.248;20.952;2023-12-20T09:15:38;6.40;99.90
17284;DHT22;8760;52.248;20.952;2023-12-20T09:18:05;6.40;99.90
17284;DHT22;8760;52.248;20.952;2023-12-20T09:20:32;6.40;99.90
17284;DHT22;8760;52.248;20.952;2023-12-20T09:22:59;6.40;99.90
17284;DHT22;8760;52.248;20.952;2023-12-20T09:25:26;6.40;99.90
17284;DHT22;8760;52.248;20.952;2023-12-20T09:27:52;6.40;99.90
17284;DHT22;8760;52.248;20.952;2023-12-20T09:30:19;6.40;99.90
17284;DHT22;8760;52.248;20.952;2023-12-20T09:32:48;6.40;99.90
17284;DHT22;8760;52.248;20.952;2023-12-20T09:35:15;6.40;99.90
17284;DHT22;8760;52.248;20.952;2023-12-20T09:37:42;6.40;99.90
17284;DHT22;8760;52.248;20.952;2023-12-20T09:40:13;6.40;99.90
17284;DHT22;8760;52.248;20.952;2023-12-20T09:42:46;6.40;99.90
17284;DHT22;8760;52.248;20.952;2023-12-20T09:45:15;6.40;99.90
17284;DHT22;8760;52.248;20.952;2023-12-20T09:47:43;6.50;99.90
17284;DHT22;8760;52.248;20.952;2023-12-20T09:50:12;6.50;99.90
17284;DHT22;8760;52.248;20.952;2023-12-20T09:52:40;6.40;99.90
17284;DHT22;8760;52.248;20.952;2023-12-20T09:55:07;6.50;99.90
17284;DHT22;8760;52.248;20.952;2023-12-20T09:57:35;6.50;99.90
17284;DHT22;8760;52.248;20.952;2023-12-20T10:00:02;6.50;99.90
17284;DHT22;8760;52.248;20.952;2023-12-20T10:02:31;6.50;99.90
17284;DHT22;8760;52.248;20.952;2023-12-20T10:04:58;6.40;99.90
17284;DHT22;8760;52.248;20.952;2023-12-20T10:07:27;6.50;99.90
17284;DHT22;8760;52.248;20.952;2023-12-20T10:09:54;6.50;99.90
17284;DHT22;8760;52.248;20.952;2023-12-20T10:12:22;6.50;99.90
17284;DHT22;8760;52.248;20.952;2023-12-20T10:14:49;6.50;99.90
17284;DHT22;8760;52.248;20.952;2023-12-20T10:17:16;6.50;99.90
17284;DHT22;8760;52.248;20.952;2023-12-20T10:19:44;6.50;99.90
17284;DHT22;8760;52.248;20.952;2023-12-20T10:22:11;6.60;99.90
17284;DHT22;8760;52.248;20.952;2023-12-20T10:24:40;6.50;99.90
17284;DHT22;8760;52.248;20.952;2023-12-20T10:27:08;6.50;99.90
17284;DHT22;8760;52.248;20.952;2023-12-20T10:29:35;6.50;99.90
17284;DHT22;8760;52.248;20.952;2023-12-20T10:32:21;6.40;99.90
17284;DHT22;8760;52.248;20.952;2023-12-20T10:34:48;6.50;99.90
17284;DHT22;8760;52.248;20.952;2023-12-20T10:37:15;6.50;99.90
17284;DHT22;8760;52.248;20.952;2023-12-20T10:39:43;6.50;99.90
17284;DHT22;8760;52.248;20.952;2023-12-20T10:42:11;6.60;99.90
17284;DHT22;8760;52.248;20.952;2023-12-20T10:44:38;6.50;99.90
17284;DHT22;8760;52.248;20.952;2023-12-20T10:47:06;6.60;99.90
17284;DHT22;8760;52.248;20.952;2023-12-20T10:49:36;6.60;99.90
17284;DHT22;8760;52.248;20.952;2023-12-20T10:52:05;6.60;99.90
17284;DHT22;8760;52.248;20.952;2023-12-20T10:54:33;6.60;99.90
17284;DHT22;8760;52.248;20.952;2023-12-20T10:57:04;6.50;99.90
17284;DHT22;8760;52.248;20.952;2023-12-20T10:59:33;6.60;99.90
17284;DHT22;8760;52.248;20.952;2023-12-20T11:02:02;6.60;99.90
17284;DHT22;8760;52.248;20.952;2023-12-20T11:04:37;6.50;99.90
17284;DHT22;8760;52.248;20.952;2023-12-20T11:07:16;6.60;99.90
17284;DHT22;8760;52.248;20.952;2023-12-20T11:09:49;6.60;99.90
17284;DHT22;8760;52.248;20.952;2023-12-20T11:12:22;6.60;99.90
17284;DHT22;8760;52.248;20.952;2023-12-20T11:14:53;6.60;99.90
17284;DHT22;8760;52.248;20.952;2023-12-20T11:17:21;6.60;99.90
17284;DHT22;8760;52.248;20.952;2023-12-20T11:20:08;6.70;99.90
17284;DHT22;8760;52.248;20.952;2023-12-20T11:22:36;6.70;99.90
17284;DHT22;8760;52.248;20.952;2023-12-20T11:25:06;6.70;99.90
17284;DHT22;8760;52.248;20.952;2023-12-20T11:27:35;6.70;99.90
17284;DHT22;8760;52.248;20.952;2023-12-20T11:30:04;6.60;99.90
17284;DHT22;8760;52.248;20.952;2023-12-20T11:32:34;6.70;99.90
17284;DHT22;8760;52.248;20.952;2023-12-20T11:35:17;6.60;99.90
17284;DHT22;8760;52.248;20.952;2023-12-20T11:37:45;6.70;99.90
17284;DHT22;8760;52.248;20.952;2023-12-20T11:40:15;6.70;99.90
17284;DHT22;8760;52.248;20.952;2023-12-20T11:42:45;6.60;99.90
17284;DHT22;8760;52.248;20.952;2023-12-20T11:45:15;6.70;99.90
17284;DHT22;8760;52.248;20.952;2023-12-20T11:47:46;6.60;99.90
17284;DHT22;8760;52.248;20.952;2023-12-20T11:50:15;6.60;99.90
17284;DHT22;8760;52.248;20.952;2023-12-20T11:52:42;6.70;99.90
17284;DHT22;8760;52.248;20.952;2023-12-20T11:55:09;6.60;99.90
17284;DHT22;8760;52.248;20.952;2023-12-20T11:57:36;6.60;99.90
17284;DHT22;8760;52.248;20.952;2023-12-20T12:00:05;6.60;99.90
17284;DHT22;8760;52.248;20.952;2023-12-20T12:02:33;6.60;99.90
17284;DHT22;8760;52.248;20.952;2023-12-20T12:05:00;6.60;99.90
17284;DHT22;8760;52.248;20.952;2023-12-20T12:07:27;6.60;99.90
17284;DHT22;8760;52.248;20.952;2023-12-20T12:09:54;6.50;99.90
17284;DHT22;8760;52.248;20.952;2023-12-20T12:12:21;6.50;99.90
17284;DHT22;8760;52.248;20.952;2023-12-20T12:14:49;6.50;99.90
17284;DHT22;8760;52.248;20.952;2023-12-20T12:17:17;6.50;99.90
17284;DHT22;8760;52.248;20.952;2023-12-20T12:19:44;6.50;99.90
17284;DHT22;8760;52.248;20.952;2023-12-20T12:22:12;6.40;99.90
17284;DHT22;8760;52.248;20.952;2023-12-20T12:24:41;6.40;99.90
17284;DHT22;8760;52.248;20.952;2023-12-20T12:27:08;6.40;99.90
17284;DHT22;8760;52.248;20.952;2023-12-20T12:29:36;6.30;99.90
17284;DHT22;8760;52.248;20.952;2023-12-20T12:32:05;6.30;99.90
17284;DHT22;8760;52.248;20.952;2023-12-20T12:34:34;6.30;99.90
17284;DHT22;8760;52.248;20.952;2023-12-20T12:37:01;6.30;99.90
17284;DHT22;8760;52.248;20.952;2023-12-20T12:39:29;6.30;99.90
17284;DHT22;8760;52.248;20.952;2023-12-20T12:41:56;6.30;99.90
17284;DHT22;8760;52.248;20.952;2023-12-20T12:44:23;6.20;99.90
17284;DHT22;8760;52.248;20.952;2023-12-20T12:46:51;6.20;99.90
17284;DHT22;8760;52.248;20.952;2023-12-20T12:49:19;6.10;99.90
17284;DHT22;8760;52.248;20.952;2023-12-20T12:51:48;6.20;99.90
17284;DHT22;8760;52.248;20.952;2023-12-20T12:54:15;6.20;99.90
17284;DHT22;8760;52.248;20.952;2023-12-20T12:56:43;6.10;99.90
17284;DHT22;8760;52.248;20.952;2023-12-20T12:59:10;6.20;99.90
17284;DHT22;8760;52.248;20.952;2023-12-20T13:01:37;6.10;99.90
17284;DHT22;8760;52.248;20.952;2023-12-20T13:04:04;6.10;99.90
17284;DHT22;8760;52.248;20.952;2023-12-20T13:06:36;6.10;99.90
17284;DHT22;8760;52.248;20.952;2023-12-20T13:09:04;6.10;99.90
17284;DHT22;8760;52.248;20.952;2023-12-20T13:11:31;6.10;99.90
17284;DHT22;8760;52.248;20.952;2023-12-20T13:13:58;6.10;99.90
17284;DHT22;8760;52.248;20.952;2023-12-20T13:16:26;6.20;99.90
17284;DHT22;8760;52.248;20.952;2023-12-20T13:18:53;6.20;99.90
17284;DHT22;8760;52.248;20.952;2023-12-20T13:21:20;6.20;99.90
17284;DHT22;8760;52.248;20.952;2023-12-20T13:23:47;6.20;99.90
17284;DHT22;8760;52.248;20.952;2023-12-20T13:26:15;6.20;99.90
17284;DHT22;8760;52.248;20.952;2023-12-20T13:28:42;6.10;99.90
17284;DHT22;8760;52.248;20.952;2023-12-20T13:31:08;6.10;99.90
17284;DHT22;8760;52.248;20.952;2023-12-20T13:33:35;6.20;99.90
17284;DHT22;8760;52.248;20.952;2023-12-20T13:36:02;6.10;99.90
17284;DHT22;8760;52.248;20.952;2023-12-20T13:38:30;6.20;99.90
17284;DHT22;8760;52.248;20.952;2023-12-20T13:40:57;6.10;99.90
17284;DHT22;8760;52.248;20.952;2023-12-20T13:43:26;6.10;99.90
17284;DHT22;8760;52.248;20.952;2023-12-20T13:45:52;6.10;99.90
17284;DHT22;8760;52.248;20.952;2023-12-20T13:48:19;6.10;99.90
17284;DHT22;8760;52.248;20.952;2023-12-20T13:50:46;6.10;99.90
17284;DHT22;8760;52.248;20.952;2023-12-20T13:53:13;6.10;99.90
17284;DHT22;8760;52.248;20.952;2023-12-20T13:55:40;6.10;99.90
17284;DHT22;8760;52.248;20.952;2023-12-20T13:58:07;6.10;99.90
17284;DHT22;8760;52.248;20.952;2023-12-20T14:00:37;6.10;99.90
17284;DHT22;8760;52.248;20.952;2023-12-20T14:03:04;6.20;99.90
17284;DHT22;8760;52.248;20.952;2023-12-20T14:05:31;6.20;99.90
17284;DHT22;8760;52.248;20.952;2023-12-20T14:07:58;6.10;99.90
17284;DHT22;8760;52.248;20.952;2023-12-20T14:10:26;6.20;99.90
17284;DHT22;8760;52.248;20.952;2023-12-20T14:12:53;6.20;99.90
17284;DHT22;8760;52.248;20.952;2023-12-20T14:15:20;6.20;99.90
17284;DHT22;8760;52.248;20.952;2023-12-20T14:17:52;6.10;99.90
17284;DHT22;8760;52.248;20.952;2023-12-20T14:20:19;6.00;99.90
17284;DHT22;8760;52.248;20.952;2023-12-20T14:22:46;6.00;99.90
17284;DHT22;8760;52.248;20.952;2023-12-20T14:25:13;6.00;99.90
17284;DHT22;8760;52.248;20.952;2023-12-20T14:27:40;6.00;99.90
17284;DHT22;8760;52.248;20.952;2023-12-20T14:30:09;6.00;99.90
17284;DHT22;8760;52.248;20.952;2023-12-20T14:32:37;6.00;99.90
17284;DHT22;8760;52.248;20.952;2023-12-20T14:35:06;6.00;99.90
17284;DHT22;8760;52.248;20.952;2023-12-20T14:37:33;6.00;99.90
17284;DHT22;8760;52.248;20.952;2023-12-20T14:40:00;6.00;99.90
17284;DHT22;8760;52.248;20.952;2023-12-20T14:42:27;6.00;99.90
17284;DHT22;8760;52.248;20.952;2023-12-20T14:44:54;6.00;99.90
17284;DHT22;8760;52.248;20.952;2023-12-20T14:47:21;5.90;99.90
17284;DHT22;8760;52.248;20.952;2023-12-20T14:49:49;5.90;99.90
17284;DHT22;8760;52.248;20.952;2023-12-20T14:52:18;5.90;99.90
17284;DHT22;8760;52.248;20.952;2023-12-20T14:54:45;5.90;99.90
17284;DHT22;8760;52.248;20.952;2023-12-20T14:57:12;5.90;99.90
17284;DHT22;8760;52.248;20.952;2023-12-20T14:59:39;5.80;99.90
17284;DHT22;8760;52.248;20.952;2023-12-20T15:02:06;5.80;99.90
17284;DHT22;8760;52.248;20.952;2023-12-20T15:04:33;5.80;99.90
17284;DHT22;8760;52.248;20.952;2023-12-20T15:07:00;5.80;99.90
17284;DHT22;8760;52.248;20.952;2023-12-20T15:09:28;5.80;99.90
17284;DHT22;8760;52.248;20.952;2023-12-20T15:11:55;5.70;99.90
17284;DHT22;8760;52.248;20.952;2023-12-20T15:14:22;5.70;99.90
17284;DHT22;8760;52.248;20.952;2023-12-20T15:16:49;5.70;99.90
17284;DHT22;8760;52.248;20.952;2023-12-20T15:19:16;5.70;99.90
17284;DHT22;8760;52.248;20.952;2023-12-20T15:21:43;5.70;99.90
17284;DHT22;8760;52.248;20.952;2023-12-20T15:24:09;5.70;99.90
17284;DHT22;8760;52.248;20.952;2023-12-20T15:26:42;5.70;99.90
17284;DHT22;8760;52.248;20.952;2023-12-20T15:29:10;5.70;99.90
17284;DHT22;8760;52.248;20.952;2023-12-20T15:31:42;5.70;99.90
17284;DHT22;8760;52.248;20.952;2023-12-20T15:34:09;5.70;99.90
17284;DHT22;8760;52.248;20.952;2023-12-20T15:36:36;5.70;99.90
17284;DHT22;8760;52.248;20.952;2023-12-20T15:39:04;5.60;99.90
17284;DHT22;8760;52.248;20.952;2023-12-20T15:41:31;5.60;99.90
17284;DHT22;8760;52.248;20.952;2023-12-20T15:43:59;5.70;99.90
17284;DHT22;8760;52.248;20.952;2023-12-20T15:46:26;5.70;99.90